Yates City, IL (61572)

8:40 AM CDT on August 30, 2016 (GMT -0500)
Elmwood, IL | | Change Station

Elev 643 ft 40.78 °N, 89.97 °W | Updated 4 minutes ago

Heavy Rain
Heavy Rain Fog
70.4 °F
Feels Like 70.4 °F
N
0.0
Wind Variable Wind from SSE
Gusts 0.0 mph

Today
High -- | Low -- °F
--% Chance of Precip.
Yesterday
High -- | Low -- °F
Precip. -- in
Pressure 30.18 in
Visibility 0.5 miles
Clouds Scattered Clouds 500 ft
Overcast 1200 ft
Dew Point 69 °F
Humidity 96%
Rainfall 0.00 in
Snow Depth Not available.
6:25 AM 7:34 PM
Waning Crescent, 4% visible
SPECI KPIA 301334Z 05005KT 1/2SM R13/2000VP6000FT VCTS +RA FG SCT005 OVC012 22/22 A3018 RMK AO2 LTG DSNT E-SW P0028 T02170217
Pressure 30.18 in
Visibility 0.5 miles
Clouds Scattered Clouds 500 ft
Overcast 1200 ft
Dew Point 69 °F
Humidity 96%
Rainfall 0.00 in
Snow Depth Not available.
6:25 AM 7:34 PM
Waning Crescent, 4% visible
SPECI KPIA 301334Z 05005KT 1/2SM R13/2000VP6000FT VCTS +RA FG SCT005 OVC012 22/22 A3018 RMK AO2 LTG DSNT E-SW P0028 T02170217

10-Day Weather Forecast

Almanac

Astronomy

Aug. 30, 2016 Rise Set
Actual Time
Civil Twilight
Nautical Twilight
Astronomical Twilight
Moon
Length of Visible Light
Length of Day
Tomorrow will be .
, % of the Moon is Illuminated

Today's Extremes

State Highs State Lows

Community

WunderPhotos

Upload Photos

1,935,831 photos uploaded!

WunderBlog® & News

Nearby

Air Quality

  Air Quality AQ Index Pollutant
Not available.

Snow Depth

Station Depth Elevation

Earthquake Activity

City Distance Mag. Time & Date
Minimum magnitude displayed is 2.5.

Coastal Water Temperatures

Place Temperature

Stations

Nearby Weather Stations

Station Location Temp. Windchill Dew Point Humidity Wind Precip. Elev Updated Type
                   

Watches & Warnings

There are currently no watches in effect.